Time;durP1;ratioP1;P1;durP2;ratioP2;P2;SDS_P1;SDS_P2;PMS_P1;PMS_P2;Temp;Humidity;BMP_temperature;BMP_pressure;BME280_temperature;BME280_humidity;BME280_pressure;Samples;Min_cycle;Max_cycle;Signal;HPM_P1;HPM_P2
2022/06/09 00:01:05;;;;;;;11.23;3.40;;;;;;;12.43;100.00;99895.25;5091561;28;20398;-69
2022/06/09 00:03:36;;;;;;;11.80;4.00;;;;;;;12.43;100.00;99898.72;5092070;28;20028;-69
2022/06/09 00:06:04;;;;;;;11.93;4.72;;;;;;;12.44;100.00;99903.03;5088254;28;20028;-69
2022/06/09 00:08:30;;;;;;;11.82;4.57;;;;;;;12.30;100.00;99879.41;5078728;28;20043;-69
2022/06/09 00:10:59;;;;;;;9.77;4.00;;;;;;;12.40;100.00;99890.19;5086333;28;20032;-69
2022/06/09 00:13:24;;;;;;;10.27;4.57;;;;;;;12.54;100.00;99913.84;5078297;28;20428;-69
2022/06/09 00:15:50;;;;;;;11.48;4.20;;;;;;;12.55;100.00;99911.06;5089356;28;20024;-69
2022/06/09 00:18:16;;;;;;;10.00;4.57;;;;;;;12.58;100.00;99910.88;5086788;28;20082;-69
2022/06/09 00:20:41;;;;;;;17.85;5.25;;;;;;;12.55;100.00;99910.22;5080848;28;20027;-69
2022/06/09 00:23:07;;;;;;;20.05;5.38;;;;;;;12.55;100.00;99899.69;5091066;28;20528;-70
2022/06/09 00:25:35;;;;;;;11.10;4.47;;;;;;;12.60;100.00;99897.59;5084158;28;20074;-71
2022/06/09 00:28:00;;;;;;;12.15;4.10;;;;;;;12.67;100.00;99898.88;5088987;28;20115;-71
2022/06/09 00:30:27;;;;;;;14.57;3.92;;;;;;;12.67;100.00;99907.63;5094903;28;20115;-71
2022/06/09 00:32:52;;;;;;;21.33;4.45;;;;;;;12.69;100.00;99912.81;5093925;28;20038;-71
2022/06/09 00:35:18;;;;;;;9.88;4.55;;;;;;;12.59;100.00;99902.03;5080573;28;20028;-71
2022/06/09 00:37:43;;;;;;;14.98;5.00;;;;;;;12.51;100.00;99887.66;5094569;28;20549;-70
2022/06/09 00:40:13;;;;;;;11.75;5.03;;;;;;;12.63;100.00;99903.53;5092983;28;20415;-70
2022/06/09 00:42:39;;;;;;;12.05;4.35;;;;;;;12.59;100.00;99909.09;5082906;28;20028;-70
2022/06/09 00:45:28;;;;;;;10.73;4.65;;;;;;;12.62;100.00;99915.00;5094008;28;20035;-69
2022/06/09 00:47:59;;;;;;;10.90;4.97;;;;;;;12.54;100.00;99904.09;5081211;28;21239;-69
2022/06/09 00:50:26;;;;;;;10.25;4.03;;;;;;;12.50;100.00;99902.66;5081753;28;20041;-70
2022/06/09 00:52:55;;;;;;;11.10;4.97;;;;;;;12.59;100.00;99911.72;5093461;28;20135;-70
2022/06/09 00:55:22;;;;;;;24.10;5.35;;;;;;;12.65;100.00;99930.63;5093235;28;20028;-69
2022/06/09 00:57:51;;;;;;;15.38;5.65;;;;;;;12.58;100.00;99912.66;5088501;28;20039;-69
2022/06/09 01:00:27;;;;;;;16.98;5.22;;;;;;;12.67;100.00;99931.34;5085766;28;20039;-70
2022/06/09 01:02:55;;;;;;;10.07;5.05;;;;;;;12.59;100.00;99917.00;5088864;28;20028;-69
2022/06/09 01:05:23;;;;;;;9.63;4.45;;;;;;;12.66;100.00;99934.09;5086709;28;20032;-70
2022/06/09 01:07:52;;;;;;;11.73;4.55;;;;;;;12.63;100.00;99931.66;5087675;28;20035;-68
2022/06/09 01:10:17;;;;;;;9.20;4.72;;;;;;;12.63;100.00;99937.78;5088660;28;20024;-68
2022/06/09 01:12:45;;;;;;;17.85;5.05;;;;;;;12.64;100.00;99946.53;5079558;28;20032;-69
2022/06/09 01:15:18;;;;;;;12.77;4.82;;;;;;;12.59;100.00;99938.09;5087260;28;20028;-69
2022/06/09 01:18:14;;;;;;;27.35;5.35;;;;;;;12.61;100.00;99936.19;5082999;28;20028;-68
2022/06/09 01:20:57;;;;;;;11.85;5.47;;;;;;;12.63;100.00;99939.56;5082992;28;20043;-69
2022/06/09 01:23:46;;;;;;;10.85;6.07;;;;;;;12.65;100.00;99948.22;5093972;28;20039;-69
2022/06/09 01:26:36;;;;;;;15.02;5.32;;;;;;;12.65;100.00;99946.44;5079876;28;20051;-69
2022/06/09 01:29:16;;;;;;;15.82;6.00;;;;;;;12.64;100.00;99947.38;5094389;28;20094;-68
2022/06/09 01:31:45;;;;;;;14.40;6.18;;;;;;;12.61;100.00;99946.72;5092576;28;20028;-69
2022/06/09 01:34:18;;;;;;;16.83;5.53;;;;;;;12.57;100.00;99939.97;5087662;28;20028;-69
2022/06/09 01:36:50;;;;;;;16.85;5.95;;;;;;;12.56;100.00;99944.41;5088968;28;20119;-68
2022/06/09 01:39:15;;;;;;;13.20;5.10;;;;;;;12.25;100.00;99907.81;5090786;28;20491;-69
2022/06/09 01:41:48;;;;;;;17.73;5.85;;;;;;;12.47;100.00;99944.16;5090702;28;20039;-69
2022/06/09 01:44:14;;;;;;;20.05;5.88;;;;;;;12.43;100.00;99951.44;5088758;28;20058;-70
2022/06/09 01:46:40;;;;;;;12.98;4.90;;;;;;;12.34;100.00;99948.50;5085515;28;20032;-70
2022/06/09 01:49:11;;;;;;;13.02;5.97;;;;;;;12.36;100.00;99950.13;5079953;28;20035;-71
2022/06/09 01:51:38;;;;;;;13.73;5.53;;;;;;;12.33;100.00;99957.38;5070680;28;20029;-70
2022/06/09 01:54:08;;;;;;;11.43;6.15;;;;;;;12.33;100.00;99957.38;5076215;28;20082;-70
2022/06/09 01:56:39;;;;;;;16.67;5.95;;;;;;;12.29;100.00;99957.59;5087607;28;20028;-71
2022/06/09 01:59:13;;;;;;;13.98;5.90;;;;;;;12.28;100.00;99970.84;5081117;28;20032;-71
2022/06/09 02:01:43;;;;;;;18.33;6.55;;;;;;;12.26;100.00;99972.75;5089794;28;20501;-70
2022/06/09 02:04:15;;;;;;;25.02;6.55;;;;;;;12.17;100.00;99960.97;5084261;28;20039;-70
2022/06/09 02:06:41;;;;;;;10.32;6.05;;;;;;;12.19;100.00;99964.38;5084402;28;20482;-70
2022/06/09 02:09:06;;;;;;;18.50;7.07;;;;;;;12.05;100.00;99940.72;5077951;28;20478;-70
2022/06/09 02:11:32;;;;;;;12.85;6.20;;;;;;;12.18;100.00;99970.59;5092313;28;20024;-71
2022/06/09 02:13:58;;;;;;;17.27;7.00;;;;;;;12.17;100.00;99976.78;5080855;28;20028;-72
2022/06/09 02:16:24;;;;;;;13.98;5.93;;;;;;;11.97;100.00;99940.34;5088493;28;20024;-71
2022/06/09 02:18:52;;;;;;;23.48;7.10;;;;;;;12.18;100.00;99967.94;5080715;28;20028;-70
2022/06/09 02:21:18;;;;;;;15.05;5.65;;;;;;;12.13;100.00;99977.91;5088979;28;20127;-70
2022/06/09 02:23:43;;;;;;;12.88;5.95;;;;;;;12.00;100.00;99981.41;5078102;28;20095;-70
2022/06/09 02:26:09;;;;;;;14.05;6.53;;;;;;;11.81;100.00;99955.41;5073606;28;20039;-70
2022/06/09 02:28:34;;;;;;;21.33;7.22;;;;;;;11.91;100.00;99977.59;5081518;28;20020;-71
2022/06/09 02:31:00;;;;;;;15.20;5.78;;;;;;;11.82;100.00;99977.31;5091576;28;20382;-73
2022/06/09 02:33:25;;;;;;;22.13;6.63;;;;;;;11.84;100.00;99986.81;5090080;28;20028;-71
2022/06/09 02:35:52;;;;;;;18.98;7.80;;;;;;;11.82;100.00;99986.06;5084486;28;20101;-71
2022/06/09 02:38:19;;;;;;;23.27;7.30;;;;;;;11.75;100.00;99979.50;5091979;28;20031;-72
2022/06/09 02:40:45;;;;;;;18.83;7.18;;;;;;;11.81;100.00;99987.00;5092481;28;20046;-71
2022/06/09 02:43:10;;;;;;;20.80;7.35;;;;;;;11.87;100.00;99991.88;5083261;28;20127;-71
2022/06/09 02:45:36;;;;;;;36.00;8.20;;;;;;;11.91;100.00;100005.69;5085820;28;20482;-71
2022/06/09 02:48:02;;;;;;;16.95;7.95;;;;;;;11.84;100.00;99992.06;5090217;28;20028;-72
2022/06/09 02:50:29;;;;;;;21.95;7.53;;;;;;;11.97;100.00;99997.41;5087808;28;20474;-69
2022/06/09 02:52:54;;;;;;;21.27;7.65;;;;;;;11.86;100.00;99990.22;5077578;28;20021;-71
2022/06/09 02:55:19;;;;;;;19.95;6.97;;;;;;;11.86;100.00;99992.84;5092786;28;20054;-71
2022/06/09 02:57:45;;;;;;;17.15;8.05;;;;;;;11.98;100.00;100005.22;5087481;28;20481;-71
2022/06/09 03:00:14;;;;;;;16.88;9.15;;;;;;;12.00;100.00;100015.66;5081717;28;20036;-71
2022/06/09 03:02:40;;;;;;;29.23;8.88;;;;;;;11.94;100.00;100003.72;5088281;28;20032;-71
2022/06/09 03:05:06;;;;;;;23.15;8.27;;;;;;;12.03;100.00;100018.94;5090491;28;20550;-71
2022/06/09 03:07:32;;;;;;;16.65;7.75;;;;;;;11.97;100.00;100008.78;5087476;28;20099;-71
2022/06/09 03:09:57;;;;;;;24.27;8.23;;;;;;;11.98;100.00;100007.00;5091022;28;20469;-72
2022/06/09 03:12:22;;;;;;;18.90;8.15;;;;;;;12.00;100.00;100011.22;5091607;28;20034;-72
2022/06/09 03:14:48;;;;;;;22.33;7.95;;;;;;;11.92;100.00;100005.63;5092150;28;20048;-73
2022/06/09 03:17:13;;;;;;;22.83;8.15;;;;;;;11.94;100.00;100008.13;5085231;28;20039;-72
2022/06/09 03:19:39;;;;;;;20.58;8.13;;;;;;;12.05;100.00;100035.50;5085633;28;20028;-72
2022/06/09 03:22:04;;;;;;;19.50;7.93;;;;;;;12.06;100.00;100034.59;5090849;28;20028;-72
2022/06/09 03:24:30;;;;;;;29.15;8.52;;;;;;;12.00;100.00;100029.66;5090024;28;20084;-72
2022/06/09 03:26:55;;;;;;;19.52;8.43;;;;;;;12.06;100.00;100045.13;5093250;28;20039;-72
2022/06/09 03:29:21;;;;;;;20.42;7.78;;;;;;;12.02;100.00;100037.50;5085694;28;20028;-72
2022/06/09 03:31:47;;;;;;;17.75;7.25;;;;;;;11.91;100.00;100024.97;5088220;28;20390;-73
2022/06/09 03:34:13;;;;;;;15.55;7.90;;;;;;;12.09;100.00;100049.34;5092529;28;20036;-72
2022/06/09 03:36:38;;;;;;;22.10;8.00;;;;;;;12.04;100.00;100038.22;5090184;28;20111;-73
2022/06/09 03:39:04;;;;;;;18.65;6.75;;;;;;;12.10;100.00;100051.84;5082584;28;20166;-72
2022/06/09 03:41:29;;;;;;;25.83;7.78;;;;;;;11.94;100.00;100024.78;5084558;28;20576;-72
2022/06/09 03:43:55;;;;;;;17.38;7.88;;;;;;;12.08;100.00;100056.38;5089301;28;20054;-72
2022/06/09 03:46:20;;;;;;;27.33;8.23;;;;;;;12.12;100.00;100065.78;5089254;28;20467;-73
2022/06/09 03:48:46;;;;;;;14.70;8.05;;;;;;;12.13;100.00;100067.47;5091967;28;20028;-72
2022/06/09 03:51:12;;;;;;;17.95;8.23;;;;;;;12.15;100.00;100073.50;5076283;28;20024;-72
2022/06/09 03:53:39;;;;;;;19.23;7.28;;;;;;;12.06;100.00;100060.91;5089285;28;20031;-72
2022/06/09 03:56:07;;;;;;;15.60;7.50;;;;;;;12.05;100.00;100061.84;5081567;28;20506;-72
2022/06/09 03:58:32;;;;;;;24.35;8.98;;;;;;;11.96;100.00;100049.25;5086721;28;20162;-72
2022/06/09 04:00:57;;;;;;;20.90;9.00;;;;;;;11.81;100.00;100023.00;5084402;28;20024;-72
2022/06/09 04:03:23;;;;;;;22.83;7.78;;;;;;;12.03;100.00;100061.06;5088329;28;20024;-72
2022/06/09 04:05:48;;;;;;;35.90;9.30;;;;;;;12.06;100.00;100058.28;5093762;28;20099;-72
2022/06/09 04:08:14;;;;;;;23.13;7.78;;;;;;;12.12;100.00;100067.59;5095192;28;20028;-71
2022/06/09 04:10:39;;;;;;;19.48;8.35;;;;;;;12.04;100.00;100069.81;5075372;28;20040;-72
2022/06/09 04:13:05;;;;;;;16.30;7.45;;;;;;;12.07;100.00;100083.66;5077085;28;20036;-72
2022/06/09 04:15:31;;;;;;;17.42;8.02;;;;;;;12.07;100.00;100088.06;5075339;28;20055;-72
2022/06/09 04:17:56;;;;;;;14.93;8.13;;;;;;;12.06;100.00;100087.25;5078611;28;20036;-72
2022/06/09 04:20:24;;;;;;;20.48;7.93;;;;;;;11.86;100.00;100058.66;5072644;28;20422;-71
2022/06/09 04:22:50;;;;;;;11.82;6.25;;;;;;;11.86;100.00;100053.41;5078427;28;20016;-71
2022/06/09 04:25:17;;;;;;;21.33;7.43;;;;;;;12.13;100.00;100090.34;5091080;28;20044;-72
2022/06/09 04:27:42;;;;;;;35.65;9.60;;;;;;;11.93;100.00;100067.03;5088083;28;20065;-71
2022/06/09 04:30:09;;;;;;;27.70;8.75;;;;;;;12.15;100.00;100102.47;5080765;28;20023;-71
2022/06/09 04:32:34;;;;;;;21.58;8.15;;;;;;;12.15;100.00;100097.22;5092157;28;20017;-72
2022/06/09 04:35:00;;;;;;;21.17;7.22;;;;;;;12.09;100.00;100089.69;5094258;28;20069;-73
2022/06/09 04:37:59;;;;;;;24.60;8.60;;;;;;;12.12;100.00;100092.13;5093887;28;20059;-72
2022/06/09 04:40:11;;;;;;;21.80;8.73;;;;;;;12.13;100.00;100099.06;5093658;28;20096;-72
2022/06/09 04:42:36;;;;;;;20.60;8.13;;;;;;;12.08;100.00;100089.78;5086040;28;20115;-73
2022/06/09 04:45:02;;;;;;;21.98;7.10;;;;;;;12.16;100.00;100103.34;5091315;28;20095;-72
2022/06/09 04:47:28;;;;;;;22.35;8.70;;;;;;;12.19;100.00;100097.88;5092383;28;20390;-73
2022/06/09 04:49:53;;;;;;;15.77;7.00;;;;;;;12.32;100.00;100113.75;5081310;28;20025;-72
2022/06/09 04:52:18;;;;;;;22.30;7.35;;;;;;;12.33;100.00;100112.81;5087343;28;20020;-72
2022/06/09 04:54:44;;;;;;;25.90;9.07;;;;;;;12.28;100.00;100103.41;5087092;28;20028;-72
2022/06/09 04:57:09;;;;;;;21.38;7.93;;;;;;;12.38;100.00;100123.91;5075654;28;20045;-72
2022/06/09 04:59:34;;;;;;;18.52;7.65;;;;;;;12.45;100.00;100130.50;5073949;28;20115;-73
2022/06/09 05:02:00;;;;;;;27.48;8.23;;;;;;;12.42;100.00;100126.28;5072112;28;20402;-72
2022/06/09 05:04:25;;;;;;;20.42;8.35;;;;;;;12.37;100.00;100114.34;5074779;28;20064;-72
2022/06/09 05:06:50;;;;;;;21.38;7.25;;;;;;;12.45;100.00;100133.13;5080646;28;20110;-73
2022/06/09 05:09:17;;;;;;;34.92;7.95;;;;;;;12.44;100.00;100134.06;5083515;28;20021;-73
2022/06/09 05:11:42;;;;;;;12.93;6.72;;;;;;;12.54;100.00;100156.31;5082412;28;20375;-72
2022/06/09 05:14:08;;;;;;;19.90;7.47;;;;;;;12.49;100.00;100159.22;5089003;28;20031;-73
2022/06/09 05:16:33;;;;;;;25.27;8.02;;;;;;;12.55;100.00;100163.25;5086839;28;20416;-72
2022/06/09 05:18:58;;;;;;;18.80;7.75;;;;;;;12.52;100.00;100153.75;5090792;28;20031;-73
2022/06/09 05:21:24;;;;;;;13.50;7.28;;;;;;;12.66;100.00;100171.34;5090030;28;20475;-72
2022/06/09 05:23:49;;;;;;;28.73;7.90;;;;;;;12.73;100.00;100172.66;5079766;28;20035;-74
2022/06/09 05:26:16;;;;;;;25.17;7.75;;;;;;;12.77;100.00;100176.81;5086769;28;20107;-73
2022/06/09 05:28:41;;;;;;;22.27;8.45;;;;;;;12.78;100.00;100165.28;5092871;28;20099;-72
2022/06/09 05:31:06;;;;;;;16.30;7.00;;;;;;;12.82;100.00;100182.63;5086687;28;20104;-73
2022/06/09 05:33:32;;;;;;;16.08;7.63;;;;;;;12.77;100.00;100174.16;5074525;28;20056;-72
2022/06/09 05:35:58;;;;;;;18.73;7.28;;;;;;;12.93;100.00;100195.97;5090651;28;20032;-72
2022/06/09 05:46:41;;;;;;;16.58;6.70;;;;;;;12.91;100.00;100197.84;5073032;28;20067;-73
2022/06/09 05:49:06;;;;;;;26.67;8.50;;;;;;;12.92;100.00;100209.25;5086341;28;20028;-73
2022/06/09 05:51:31;;;;;;;27.65;8.18;;;;;;;12.93;100.00;100216.22;5088906;28;20364;-73
2022/06/09 05:53:57;;;;;;;30.10;8.88;;;;;;;12.90;100.00;100204.09;5091602;28;20439;-73
2022/06/09 05:56:23;;;;;;;15.90;7.05;;;;;;;12.92;100.00;100203.97;5078290;28;20399;-73
2022/06/09 05:58:48;;;;;;;37.25;8.55;;;;;;;12.96;100.00;100202.84;5081260;28;20455;-73
2022/06/09 06:01:14;;;;;;;22.58;7.78;;;;;;;13.01;100.00;100225.34;5092977;28;20028;-73
2022/06/09 06:03:40;;;;;;;23.20;7.38;;;;;;;12.92;100.00;100218.00;5090152;28;20079;-73
2022/06/09 06:08:50;;;;;;;22.43;7.13;;;;;;;13.04;100.00;100234.88;5072141;28;20042;-73
2022/06/09 06:11:15;;;;;;;19.83;8.05;;;;;;;13.03;100.00;100220.84;5076822;28;20036;-73
2022/06/09 06:13:44;;;;;;;20.98;7.47;;;;;;;13.04;100.00;100217.25;5073933;28;20437;-73
2022/06/09 06:16:10;;;;;;;24.08;7.85;;;;;;;13.18;100.00;100234.88;5089185;28;20545;-72
2022/06/09 06:18:35;;;;;;;16.25;7.68;;;;;;;13.29;100.00;100249.06;5074807;28;20111;-74
2022/06/09 06:21:00;;;;;;;15.65;6.88;;;;;;;13.16;100.00;100234.97;5073845;28;20359;-72
2022/06/09 06:23:27;;;;;;;19.02;7.50;;;;;;;13.37;100.00;100259.16;5091817;28;20032;-73
2022/06/09 06:25:53;;;;;;;14.60;6.78;;;;;;;13.51;100.00;100268.81;5093792;28;20478;-73
2022/06/09 06:28:18;;;;;;;22.98;8.77;;;;;;;13.41;100.00;100243.97;5091100;28;20051;-73
2022/06/09 06:30:44;;;;;;;15.60;7.90;;;;;;;13.53;100.00;100251.09;5093027;28;20474;-73
2022/06/09 06:33:09;;;;;;;21.58;8.35;;;;;;;13.51;100.00;100240.66;5075826;28;20031;-73
2022/06/09 06:35:35;;;;;;;17.60;6.47;;;;;;;13.73;100.00;100266.47;5079979;28;20039;-73
2022/06/09 06:38:00;;;;;;;18.65;8.90;;;;;;;13.80;100.00;100273.06;5091367;28;20031;-72
2022/06/09 06:40:27;;;;;;;18.02;8.40;;;;;;;13.88;100.00;100285.78;5091369;28;20096;-73
2022/06/09 06:42:53;;;;;;;21.50;8.57;;;;;;;13.83;100.00;100280.78;5090247;28;20059;-73
2022/06/09 06:45:18;;;;;;;17.80;7.28;;;;;;;13.86;100.00;100293.78;5092072;28;20467;-72
2022/06/09 06:47:44;;;;;;;15.30;7.85;;;;;;;13.81;100.00;100280.03;5083737;28;20463;-72
2022/06/09 06:50:11;;;;;;;14.70;8.07;;;;;;;13.97;100.00;100308.94;5087092;28;20043;-71
2022/06/09 06:52:36;;;;;;;15.65;7.70;;;;;;;13.34;100.00;100206.56;5089373;28;20024;-74
2022/06/09 06:55:02;;;;;;;24.15;8.45;;;;;;;13.99;100.00;100305.22;5078250;28;20151;-73
2022/06/09 06:57:28;;;;;;;16.85;7.18;;;;;;;14.11;100.00;100309.72;5080575;28;20467;-74
2022/06/09 06:59:53;;;;;;;24.42;9.38;;;;;;;13.89;100.00;100285.66;5089110;28;20034;-72
2022/06/09 07:02:18;;;;;;;15.35;7.07;;;;;;;14.08;100.00;100303.78;5092180;28;20421;-72
2022/06/09 07:04:44;;;;;;;15.00;8.50;;;;;;;14.13;100.00;100304.31;5090281;28;20028;-72
2022/06/09 07:07:11;;;;;;;23.58;8.50;;;;;;;14.33;100.00;100320.59;5079437;28;20065;-73
2022/06/09 07:09:37;;;;;;;11.68;7.00;;;;;;;14.45;100.00;100303.06;5078667;28;20023;-72
2022/06/09 07:12:03;;;;;;;29.35;8.85;;;;;;;14.74;100.00;100312.50;5090932;28;20028;-71
2022/06/09 07:14:28;;;;;;;18.48;7.07;;;;;;;14.85;100.00;100317.06;5090098;28;20031;-74
2022/06/09 07:16:54;;;;;;;17.80;8.45;;;;;;;14.94;100.00;100305.81;5077065;28;20024;-73
2022/06/09 07:19:19;;;;;;;13.20;7.28;;;;;;;15.16;100.00;100321.91;5083438;28;20089;-72
2022/06/09 07:21:45;;;;;;;15.93;8.63;;;;;;;15.21;100.00;100330.34;5084523;28;20393;-72
2022/06/09 07:24:11;;;;;;;15.60;8.35;;;;;;;15.18;100.00;100335.88;5091666;28;20534;-72
2022/06/09 07:26:37;;;;;;;14.43;7.38;;;;;;;15.17;100.00;100342.16;5080966;28;20020;-72
2022/06/09 07:29:03;;;;;;;18.00;7.32;;;;;;;15.11;100.00;100350.47;5088598;28;20027;-73
2022/06/09 07:31:29;;;;;;;16.48;7.50;;;;;;;15.10;100.00;100348.81;5090059;28;20036;-72
2022/06/09 07:33:55;;;;;;;14.98;6.95;;;;;;;15.14;100.00;100349.44;5078817;28;20024;-71
2022/06/09 07:36:22;;;;;;;11.98;6.70;;;;;;;15.05;100.00;100356.22;5078010;28;20020;-74
2022/06/09 07:38:47;;;;;;;20.45;7.40;;;;;;;15.10;100.00;100347.97;5089087;28;20032;-72
2022/06/09 07:41:13;;;;;;;13.32;6.70;;;;;;;15.27;100.00;100366.16;5098290;28;20554;-74
2022/06/09 07:43:38;;;;;;;15.82;7.40;;;;;;;15.30;100.00;100345.63;5094873;28;20028;-75
2022/06/09 07:46:04;;;;;;;18.50;7.00;;;;;;;15.47;100.00;100359.47;5080284;28;20445;-73
2022/06/09 07:48:29;;;;;;;13.68;6.78;;;;;;;15.53;100.00;100359.06;5095230;28;20024;-73
2022/06/09 07:50:55;;;;;;;23.30;6.75;;;;;;;15.54;100.00;100358.09;5080362;28;20046;-74
2022/06/09 07:53:22;;;;;;;13.05;6.05;;;;;;;15.57;100.00;100365.84;5091489;28;20017;-74
2022/06/09 07:55:48;;;;;;;17.95;6.45;;;;;;;15.61;100.00;100359.38;5078183;28;20408;-74
2022/06/09 07:58:14;;;;;;;11.25;6.43;;;;;;;15.66;100.00;100351.91;5091735;28;20415;-73
2022/06/09 08:00:40;;;;;;;15.57;6.68;;;;;;;15.72;100.00;100367.38;5076098;28;20020;-73
2022/06/09 08:03:07;;;;;;;11.75;5.75;;;;;;;15.75;100.00;100367.13;5087920;28;20050;-74
2022/06/09 08:05:33;;;;;;;16.55;5.38;;;;;;;15.76;100.00;100366.19;5086931;28;20028;-73
2022/06/09 08:07:58;;;;;;;13.15;5.38;;;;;;;15.74;100.00;100344.28;5087338;28;20024;-74
2022/06/09 08:10:26;;;;;;;14.55;6.60;;;;;;;16.00;100.00;100355.63;5087913;28;20028;-73
2022/06/09 08:12:55;;;;;;;15.10;6.00;;;;;;;16.06;100.00;100366.63;5086775;28;20028;-73
2022/06/09 08:15:24;;;;;;;16.52;6.13;;;;;;;16.00;100.00;100361.78;5081238;28;20035;-73
2022/06/09 08:17:50;;;;;;;13.25;6.07;;;;;;;16.08;100.00;100356.75;5089112;28;20021;-73
2022/06/09 08:20:15;;;;;;;10.70;5.45;;;;;;;16.20;100.00;100390.31;5083507;28;20028;-73
2022/06/09 08:22:43;;;;;;;13.45;6.20;;;;;;;16.09;100.00;100371.69;5091505;28;20077;-73
2022/06/09 08:25:11;;;;;;;20.90;7.50;;;;;;;16.21;100.00;100397.31;5077589;28;20024;-73
2022/06/09 08:27:37;;;;;;;21.42;6.45;;;;;;;16.29;100.00;100384.31;5075418;28;20517;-73
2022/06/09 08:30:04;;;;;;;15.75;6.00;;;;;;;16.40;100.00;100401.25;5095448;28;20055;-75
2022/06/09 08:32:29;;;;;;;18.27;6.13;;;;;;;16.40;100.00;100401.25;5080706;28;20024;-74
2022/06/09 08:34:55;;;;;;;25.95;7.15;;;;;;;16.49;100.00;100400.59;5089304;28;20033;-73
2022/06/09 08:37:20;;;;;;;14.07;5.75;;;;;;;16.70;100.00;100409.59;5083737;28;20051;-73
2022/06/09 08:39:45;;;;;;;9.68;5.20;;;;;;;16.67;100.00;100415.13;5077659;28;20033;-73
2022/06/09 08:42:25;;;;;;;14.65;5.97;;;;;;;16.61;100.00;100394.38;5093284;28;20062;-74
2022/06/09 08:45:02;;;;;;;15.63;5.90;;;;;;;16.66;100.00;100416.13;5080741;28;20108;-73
2022/06/09 08:47:45;;;;;;;12.82;5.97;;;;;;;16.62;100.00;100427.94;5093455;28;20173;-73
2022/06/09 08:50:21;;;;;;;13.13;4.90;;;;;;;16.51;100.00;100415.41;5092821;28;20560;-73
2022/06/09 08:53:05;;;;;;;10.68;5.68;;;;;;;16.47;100.00;100429.00;5092631;28;20034;-73
2022/06/09 08:55:45;;;;;;;21.38;5.88;;;;;;;16.38;100.00;100427.06;5088615;28;20075;-73
2022/06/09 08:58:19;;;;;;;12.77;5.80;;;;;;;16.24;100.00;100428.06;5077514;28;20066;-73
2022/06/09 09:01:04;;;;;;;11.45;6.38;;;;;;;16.05;100.00;100409.16;5094445;28;20056;-73
2022/06/09 09:03:37;;;;;;;19.75;5.72;;;;;;;16.32;100.00;100413.25;5092861;28;20028;-73
2022/06/09 09:06:07;;;;;;;15.40;5.50;;;;;;;16.67;100.00;100409.84;5082834;28;20379;-72
2022/06/09 09:08:35;;;;;;;12.70;5.78;;;;;;;17.02;100.00;100410.66;5091516;28;21254;-73
2022/06/09 09:11:15;;;;;;;8.90;5.03;;;;;;;17.20;100.00;100430.47;5092148;28;20016;-73
2022/06/09 09:13:59;;;;;;;19.27;5.72;;;;;;;16.78;100.00;100433.75;5089318;28;20032;-74
2022/06/09 09:16:43;;;;;;;9.07;5.03;;;;;;;16.17;100.00;100427.66;5079443;28;20887;-72
2022/06/09 09:19:27;;;;;;;14.20;5.28;;;;;;;15.99;100.00;100444.88;5075128;28;20044;-73
2022/06/09 09:21:52;;;;;;;12.27;4.88;;;;;;;15.91;100.00;100443.75;5077724;28;20032;-73
2022/06/09 09:24:30;;;;;;;9.73;5.28;;;;;;;15.88;100.00;100447.47;5082176;28;20032;-73
2022/06/09 09:27:04;;;;;;;9.02;4.60;;;;;;;15.93;100.00;100444.47;5077028;28;20033;-73
2022/06/09 09:29:29;;;;;;;10.57;4.85;;;;;;;16.05;100.00;100456.88;5077840;28;20034;-72
2022/06/09 09:31:58;;;;;;;9.45;4.63;;;;;;;15.94;100.00;100412.56;5078165;28;20028;-74
2022/06/09 09:34:45;;;;;;;19.10;5.25;;;;;;;16.32;100.00;100457.53;5077616;28;20042;-72
2022/06/09 09:37:38;;;;;;;8.30;4.85;;;;;;;16.27;100.00;100436.63;5075393;28;20028;-73
2022/06/09 09:40:04;;;;;;;9.20;4.25;;;;;;;16.40;100.00;100456.94;5063843;28;20549;-72
2022/06/09 09:42:33;;;;;;;13.90;5.13;;;;;;;16.28;100.00;100445.44;5053937;28;20059;-72
2022/06/09 09:45:00;;;;;;;7.93;5.07;;;;;;;15.96;100.00;100413.31;5072990;28;20103;-73
2022/06/09 09:47:27;;;;;;;16.23;6.25;;;;;;;16.28;100.00;100454.25;5074780;28;20070;-73
2022/06/09 09:49:57;;;;;;;11.23;5.05;;;;;;;16.34;100.00;100458.25;5093524;28;20024;-72
2022/06/09 09:52:42;;;;;;;11.52;5.13;;;;;;;16.39;100.00;100460.56;5098268;27;20040;-72
2022/06/09 09:55:29;;;;;;;11.73;5.72;;;;;;;16.51;100.00;100457.88;5090642;28;20119;-73
2022/06/09 09:58:34;;;;;;;10.70;4.97;;;;;;;16.64;100.00;100471.09;5091965;28;20036;-75
2022/06/09 10:01:17;;;;;;;12.05;5.32;;;;;;;16.72;100.00;100476.69;5085333;28;20032;-73
2022/06/09 10:09:38;;;;;;;9.55;4.38;;;;;;;16.62;100.00;100457.09;5083467;28;20398;-73
2022/06/09 10:12:11;;;;;;;16.10;5.25;;;;;;;16.82;100.00;100491.81;5074775;28;20073;-72
2022/06/09 10:14:51;;;;;;;7.75;4.30;;;;;;;16.89;100.00;100489.56;5091302;28;20024;-72
2022/06/09 10:17:44;;;;;;;11.27;5.18;;;;;;;16.91;100.00;100487.63;5079248;28;20055;-73
2022/06/09 10:20:28;;;;;;;13.77;4.38;;;;;;;16.93;100.00;100482.22;5090989;28;20442;-72
2022/06/09 10:23:01;;;;;;;8.10;4.30;;;;;;;17.13;100.00;100490.38;5081199;28;20027;-73
2022/06/09 10:25:53;;;;;;;8.98;4.32;;;;;;;17.18;100.00;100501.47;5091575;28;20058;-72
2022/06/09 10:28:34;;;;;;;11.70;4.32;;;;;;;17.25;100.00;100502.69;5092153;28;20032;-73
2022/06/09 10:31:09;;;;;;;8.25;4.07;;;;;;;17.46;100.00;100502.03;5052207;28;20659;-73
2022/06/09 10:33:40;;;;;;;14.10;3.80;;;;;;;17.59;100.00;100494.81;5048255;28;20118;-73
2022/06/09 10:36:21;;;;;;;7.00;3.42;;;;;;;17.50;100.00;100490.19;5055599;28;20071;-73
2022/06/09 10:38:49;;;;;;;10.45;4.18;;;;;;;17.52;100.00;100493.56;5055354;28;20329;-73
2022/06/09 10:41:21;;;;;;;9.00;3.53;;;;;;;17.63;100.00;100509.56;5060425;28;20020;-73
2022/06/09 10:44:18;;;;;;;13.93;3.55;;;;;;;17.66;100.00;100530.59;5086416;28;20114;-73
2022/06/09 10:46:46;;;;;;;8.35;2.33;;;;;;;17.06;100.00;100559.97;5090348;28;20055;-70
2022/06/09 10:55:14;;;;;;;3.65;1.83;;;;;;;14.67;100.00;100569.56;5092568;28;20086;-72
2022/06/09 10:57:52;;;;;;;3.50;1.80;;;;;;;14.44;100.00;100581.63;5090835;28;20120;-70
2022/06/09 11:00:23;;;;;;;3.50;1.50;;;;;;;14.08;100.00;100582.09;5088734;28;20036;-70
2022/06/09 11:02:54;;;;;;;4.15;1.98;;;;;;;13.15;100.00;100555.16;5089988;28;20031;-70
2022/06/09 11:05:42;;;;;;;4.53;2.28;;;;;;;12.94;100.00;100579.28;5087708;28;20116;-72
2022/06/09 11:08:23;;;;;;;5.78;2.97;;;;;;;12.68;100.00;100575.44;5084522;28;20498;-70
2022/06/09 11:10:56;;;;;;;8.77;3.97;;;;;;;12.54;100.00;100584.13;5075757;28;20034;-63
2022/06/09 11:13:30;;;;;;;5.13;3.45;;;;;;;12.44;100.00;100582.94;5093584;28;20032;-69
2022/06/09 11:16:08;;;;;;;7.43;3.60;;;;;;;12.35;100.00;100583.44;5089102;28;20500;-70
2022/06/09 11:19:00;;;;;;;10.10;5.03;;;;;;;12.24;100.00;100565.56;5072068;28;20044;-69
2022/06/09 11:21:38;;;;;;;7.88;4.72;;;;;;;12.36;100.00;100579.03;5084538;28;20051;-70
2022/06/09 11:24:21;;;;;;;7.70;4.70;;;;;;;12.44;100.00;100582.06;5087868;28;20035;-71
2022/06/09 11:26:53;;;;;;;7.65;5.47;;;;;;;12.51;100.00;100572.88;5073234;28;20085;-71
2022/06/09 11:29:40;;;;;;;12.25;6.60;;;;;;;12.52;100.00;100557.00;5083539;28;20512;-70
2022/06/09 11:32:28;;;;;;;9.15;6.82;;;;;;;12.72;100.00;100576.97;5074130;28;20027;-70
2022/06/09 11:35:14;;;;;;;15.52;6.75;;;;;;;12.66;100.00;100545.69;5082901;28;20502;-70
2022/06/09 11:37:54;;;;;;;8.20;6.78;;;;;;;13.10;100.00;100588.03;5070502;28;20071;-70
2022/06/09 11:40:50;;;;;;;11.88;8.27;;;;;;;13.24;100.00;100588.09;5066427;28;20028;-71
2022/06/09 11:43:34;;;;;;;9.65;7.80;;;;;;;13.42;100.00;100596.72;5084675;28;20123;-69
2022/06/09 11:46:06;;;;;;;9.03;7.13;;;;;;;13.30;100.00;100561.34;5086418;28;20036;-70